KMDH/MDH METAR and TAF weather

Enter ICAO airport designator
Station Type Date Time Source
KMDH METAR 2021/07/26 14:52 UTC NOAA

KMDH 261452Z 05003KT 10SM CLR 29/24 A3001 RMK AO2 SLP158 T02890239 51005


Station Type Date Time Source
KMDH Decoded METAR 2021/07/26 14:52 UTC NOAA

SOUTHERN ILLINOIS AIRPORT, IL, United States (KMDH) 37-47N 089-15W 130M
Jul 26, 2021 - 10:52 AM EDT / 2021.07.26 1452 UTC
Wind: from the NE (050 degrees) at 3 MPH (3 KT):0
Visibility: 10 mile(s):0
Sky conditions: clear
Temperature: 84.0 F (28.9 C)
Dew Point: 75.0 F (23.9 C)
Relative Humidity: 74%
Pressure (altimeter): 30.01 in. Hg (1016 hPa)
Pressure tendency: 0.01 inches (0.5 hPa) higher than three hours ago
ob: KMDH 261452Z 05003KT 10SM CLR 29/24 A3001 RMK AO2 SLP158 T02890239 51005
cycle: 15

Station Type Date Time Source
KMDH TAF UTC NOAA

Error!

Example: see airport list